Time;durP1;ratioP1;P1;durP2;ratioP2;P2;SDS_P1;SDS_P2;PMS_P1;PMS_P2;Temp;Humidity;BMP_temperature;BMP_pressure;BME280_temperature;BME280_humidity;BME280_pressure;Samples;Min_cycle;Max_cycle;Signal;HPM_P1;HPM_P2
2022/04/21 00:01:24;;;;;;;5.75;3.65;;;;;;;12.36;46.17;100158.78;4021556;29;20102;-55
2022/04/21 00:03:28;;;;;;;6.57;3.58;;;;;;;12.29;46.43;100154.41;4035825;29;20047;-54
2022/04/21 00:05:31;;;;;;;7.05;3.70;;;;;;;12.26;46.33;100150.06;4025605;29;20042;-55
2022/04/21 00:07:34;;;;;;;7.00;3.08;;;;;;;12.29;46.84;100154.41;4034187;29;20049;-53
2022/04/21 00:09:37;;;;;;;7.03;3.70;;;;;;;12.33;46.62;100150.97;4035906;29;20052;-55
2022/04/21 00:11:40;;;;;;;7.60;3.45;;;;;;;12.30;45.97;100140.53;4050158;29;20053;-54
2022/04/21 00:13:43;;;;;;;5.03;3.33;;;;;;;12.18;46.50;100146.59;4045814;29;20603;-54
2022/04/21 00:15:47;;;;;;;6.72;3.42;;;;;;;12.17;46.33;100137.88;4039694;29;20120;-53
2022/04/21 00:17:50;;;;;;;7.95;3.60;;;;;;;12.11;46.45;100135.25;4025148;29;20114;-55
2022/04/21 00:19:53;;;;;;;8.13;3.97;;;;;;;12.23;46.64;100143.09;4025487;29;20045;-55
2022/04/21 00:24:17;;;;;;;7.20;3.50;;;;;;;12.11;46.95;100143.09;4025245;29;20046;-54
2022/04/21 00:26:20;;;;;;;5.32;3.75;;;;;;;12.06;47.61;100136.97;4024346;29;20057;-55
2022/04/21 00:28:23;;;;;;;8.73;3.15;;;;;;;12.08;46.66;100137.00;4025057;29;20050;-55
2022/04/21 00:30:26;;;;;;;7.30;3.60;;;;;;;12.00;47.58;100135.25;4033886;29;20049;-55
2022/04/21 00:32:30;;;;;;;10.50;3.85;;;;;;;12.00;47.06;100135.25;4035560;29;20060;-55
2022/04/21 00:34:34;;;;;;;4.40;3.33;;;;;;;11.97;47.11;100135.25;4025236;29;20140;-55
2022/04/21 00:36:37;;;;;;;6.60;3.28;;;;;;;11.95;46.97;100134.34;4035096;29;20136;-55
2022/04/21 00:38:40;;;;;;;5.00;3.35;;;;;;;11.94;47.37;100129.13;4035254;29;20045;-55
2022/04/21 00:40:42;;;;;;;8.20;3.83;;;;;;;11.96;47.79;100123.06;4035312;29;20056;-54
2022/04/21 00:42:46;;;;;;;7.43;4.05;;;;;;;11.93;47.01;100124.75;4025107;29;20053;-54
2022/04/21 00:44:50;;;;;;;6.15;4.15;;;;;;;11.93;47.79;100124.75;4025020;29;20136;-54
2022/04/21 00:46:54;;;;;;;5.00;3.67;;;;;;;11.93;47.14;100125.66;4024636;29;20049;-54
2022/04/21 00:48:58;;;;;;;7.88;3.58;;;;;;;11.88;47.64;100122.13;4025147;29;20045;-55
2022/04/21 00:51:01;;;;;;;5.68;3.78;;;;;;;11.96;47.11;100127.38;4023795;29;20392;-53
2022/04/21 00:53:05;;;;;;;6.38;4.15;;;;;;;11.87;47.94;100121.28;4023777;29;20053;-54
2022/04/21 00:55:09;;;;;;;5.88;3.78;;;;;;;11.84;47.04;100123.88;4024937;29;20128;-53
2022/04/21 00:57:12;;;;;;;8.30;4.55;;;;;;;11.83;47.67;100119.53;4024582;29;20042;-54
2022/04/21 00:59:16;;;;;;;6.70;4.00;;;;;;;11.76;47.36;100119.50;4023608;29;20415;-55
2022/04/21 01:03:42;;;;;;;6.13;3.90;;;;;;;11.74;47.32;100135.13;4049276;29;20067;-53
2022/04/21 01:05:49;;;;;;;8.57;4.13;;;;;;;11.87;47.26;100121.28;4023653;29;20045;-56
2022/04/21 01:07:52;;;;;;;7.97;4.13;;;;;;;11.79;47.01;100130.78;4024369;29;20053;-55
2022/04/21 01:09:55;;;;;;;6.80;4.05;;;;;;;11.75;47.63;100122.97;4038967;29;21259;-55
2022/04/21 01:11:58;;;;;;;7.85;3.75;;;;;;;11.62;48.01;100135.03;4024702;29;20045;-55
2022/04/21 01:14:01;;;;;;;5.95;4.00;;;;;;;11.63;47.47;100126.38;4024691;29;20037;-54
2022/04/21 01:16:06;;;;;;;5.65;3.58;;;;;;;11.65;47.73;100130.75;4038821;29;20037;-55
2022/04/21 01:18:09;;;;;;;7.60;3.92;;;;;;;11.59;48.29;100125.47;4023795;29;20043;-54
2022/04/21 01:20:16;;;;;;;5.95;3.78;;;;;;;11.65;47.98;100128.13;4038767;29;20045;-55
2022/04/21 01:22:19;;;;;;;8.38;3.72;;;;;;;11.70;47.92;100122.94;4023368;29;20128;-54
2022/04/21 01:24:22;;;;;;;5.90;3.83;;;;;;;11.60;48.40;100124.63;4032343;29;20049;-58
2022/04/21 01:26:28;;;;;;;6.65;4.00;;;;;;;11.58;47.43;100122.88;4032591;29;20041;-55
2022/04/21 01:28:32;;;;;;;6.68;4.47;;;;;;;11.61;47.71;100122.88;4034508;29;20124;-53
2022/04/21 01:30:35;;;;;;;6.55;4.38;;;;;;;11.54;48.19;100124.59;4024326;29;20102;-54
2022/04/21 01:32:41;;;;;;;7.65;5.05;;;;;;;11.57;48.27;100122.00;4034645;29;20049;-54
2022/04/21 01:34:43;;;;;;;6.43;4.35;;;;;;;11.51;48.31;100124.59;4034561;29;20101;-53
2022/04/21 01:41:37;;;;;;;5.70;4.20;;;;;;;11.37;48.33;100118.44;4014204;29;20065;-53
2022/04/21 01:43:43;;;;;;;6.45;4.05;;;;;;;11.37;48.46;100116.69;4034474;29;20045;-53
2022/04/21 01:45:46;;;;;;;7.22;4.18;;;;;;;11.35;48.76;100127.09;4034408;29;20132;-55
2022/04/21 01:47:49;;;;;;;6.82;4.63;;;;;;;11.38;48.48;100112.38;4035337;29;20049;-54
2022/04/21 01:49:52;;;;;;;5.68;4.07;;;;;;;11.41;47.85;100115.00;4028397;29;20053;-55
2022/04/21 01:51:56;;;;;;;6.88;4.85;;;;;;;11.39;48.38;100112.41;4029392;29;20053;-54
2022/04/21 01:53:59;;;;;;;6.03;4.25;;;;;;;11.37;48.58;100114.09;4027586;29;20344;-54
2022/04/21 01:56:02;;;;;;;5.32;3.22;;;;;;;11.34;48.05;100116.69;4029175;29;20124;-55
2022/04/21 01:58:05;;;;;;;5.10;3.80;;;;;;;11.36;48.64;100117.59;4017387;29;20050;-53
2022/04/21 02:00:10;;;;;;;6.18;3.83;;;;;;;11.36;48.26;100117.59;4029756;29;20089;-54
2022/04/21 02:02:13;;;;;;;7.30;4.18;;;;;;;11.34;48.27;100114.09;4030169;29;20416;-54
2022/04/21 02:04:15;;;;;;;7.40;4.68;;;;;;;11.34;48.07;100114.94;4023036;29;20041;-54
2022/04/21 02:06:18;;;;;;;6.22;3.33;;;;;;;11.23;48.59;100114.03;4023838;29;20052;-53
2022/04/21 02:08:23;;;;;;;7.35;4.05;;;;;;;11.18;49.08;100116.63;4023689;29;20048;-55
2022/04/21 02:10:26;;;;;;;6.82;4.18;;;;;;;11.24;48.56;100114.91;4038208;29;20040;-54
2022/04/21 02:12:29;;;;;;;5.80;4.30;;;;;;;11.25;48.92;100117.50;4024081;29;20041;-54
2022/04/21 02:14:31;;;;;;;6.78;4.15;;;;;;;11.23;48.70;100116.63;4023922;29;20045;-55
2022/04/21 02:16:34;;;;;;;6.35;4.68;;;;;;;11.23;48.65;100113.16;4023680;29;20128;-55
2022/04/21 02:18:37;;;;;;;7.65;4.82;;;;;;;11.28;48.40;100111.47;4034744;29;20049;-53
2022/04/21 02:20:40;;;;;;;5.85;4.20;;;;;;;11.18;48.73;100119.22;4034255;29;20442;-55
2022/04/21 02:22:44;;;;;;;6.38;4.38;;;;;;;11.17;49.17;100120.06;4033919;29;20055;-55
2022/04/21 02:24:48;;;;;;;5.15;3.80;;;;;;;11.16;49.35;100114.88;4034067;29;20128;-55
2022/04/21 02:26:51;;;;;;;4.95;3.63;;;;;;;11.08;48.83;100112.22;4023395;29;20038;-54
2022/04/21 02:28:54;;;;;;;6.07;4.13;;;;;;;11.11;49.10;100107.03;4022502;29;20065;-55
2022/04/21 02:30:57;;;;;;;5.82;4.63;;;;;;;11.08;49.09;100107.00;4022880;29;20101;-55
2022/04/21 02:33:00;;;;;;;6.07;4.07;;;;;;;11.10;49.10;100107.88;4038014;29;20048;-54
2022/04/21 02:35:03;;;;;;;6.60;4.85;;;;;;;11.12;49.11;100106.16;4023688;29;20077;-55
2022/04/21 02:37:06;;;;;;;7.35;4.50;;;;;;;11.07;49.04;100107.88;4021977;29;20056;-55
2022/04/21 02:39:09;;;;;;;5.30;4.38;;;;;;;11.05;49.26;100112.16;4022358;29;20105;-55
2022/04/21 02:41:15;;;;;;;9.57;4.50;;;;;;;11.05;49.42;100106.97;4037722;29;20057;-55
2022/04/21 02:43:18;;;;;;;7.63;4.45;;;;;;;11.05;48.98;100101.75;4023756;29;20105;-55
2022/04/21 02:45:20;;;;;;;9.75;4.90;;;;;;;10.97;49.32;100101.72;4037822;29;20033;-55
2022/04/21 02:47:24;;;;;;;6.10;4.30;;;;;;;10.93;49.43;100097.34;4023297;29;20041;-56
2022/04/21 02:49:27;;;;;;;7.50;4.15;;;;;;;10.90;49.95;100097.34;4023583;29;20037;-55
2022/04/21 02:51:31;;;;;;;6.87;4.50;;;;;;;10.86;50.46;100099.91;4022331;29;20105;-54
2022/04/21 02:58:17;;;;;;;6.07;4.38;;;;;;;10.86;50.14;100092.13;4033479;29;20097;-54
2022/04/21 03:00:20;;;;;;;7.43;4.68;;;;;;;10.88;49.88;100085.19;4033686;29;20106;-56
2022/04/21 03:02:24;;;;;;;7.70;4.85;;;;;;;10.83;49.91;100085.16;4035060;29;20081;-55
2022/04/21 03:04:27;;;;;;;7.05;4.72;;;;;;;10.80;50.35;100095.53;4033985;29;20083;-55
2022/04/21 03:06:30;;;;;;;9.40;4.63;;;;;;;10.81;49.92;100087.75;4034769;29;20120;-56
2022/04/21 03:08:32;;;;;;;7.90;4.85;;;;;;;10.85;49.89;100092.97;4033621;29;20049;-55
2022/04/21 03:10:35;;;;;;;10.75;4.68;;;;;;;10.87;49.74;100080.84;4035149;29;20128;-55
2022/04/21 03:12:38;;;;;;;7.43;4.68;;;;;;;10.92;49.56;100079.16;4033686;29;20056;-55
2022/04/21 03:14:43;;;;;;;6.32;4.95;;;;;;;10.93;49.85;100073.09;4023809;29;20049;-55
2022/04/21 03:16:46;;;;;;;8.07;5.55;;;;;;;10.89;49.31;100073.94;4047503;29;20043;-54
2022/04/21 03:18:49;;;;;;;8.00;4.47;;;;;;;10.81;49.93;100077.34;4033530;29;20045;-53
2022/04/21 03:25:35;;;;;;;6.30;4.93;;;;;;;10.70;50.35;100078.13;4023498;29;20053;-54
2022/04/21 03:27:38;;;;;;;6.00;4.45;;;;;;;10.64;50.62;100078.94;4022888;29;20061;-55
2022/04/21 03:29:43;;;;;;;8.20;4.95;;;;;;;10.64;50.35;100076.34;4032540;29;20041;-54
2022/04/21 03:31:48;;;;;;;6.80;4.68;;;;;;;10.63;50.63;100078.09;4033435;29;20045;-55
2022/04/21 03:33:51;;;;;;;7.13;4.45;;;;;;;10.64;50.69;100078.94;4033555;29;20055;-55
2022/04/21 03:35:54;;;;;;;6.93;4.45;;;;;;;10.68;50.10;100075.50;4041785;29;20044;-55
2022/04/21 03:37:57;;;;;;;6.47;4.38;;;;;;;10.69;50.59;100077.28;4032928;29;20037;-54
2022/04/21 03:40:00;;;;;;;13.00;5.00;;;;;;;10.66;50.72;100072.03;4033452;29;20041;-54
2022/04/21 03:42:04;;;;;;;7.68;5.28;;;;;;;10.64;50.64;100082.44;4034570;29;20093;-55
2022/04/21 03:44:07;;;;;;;7.97;4.93;;;;;;;10.61;50.36;100084.97;4036402;29;20042;-55
2022/04/21 03:46:12;;;;;;;6.65;5.32;;;;;;;10.57;50.79;100092.75;4036190;29;20301;-55
2022/04/21 03:48:15;;;;;;;;;;;;;;;10.41;51.43;100089.16;4026082;29;20040;-55
2022/04/21 03:50:18;;;;;;;8.20;5.30;;;;;;;10.40;51.15;100090.03;4025978;29;19980;-54
2022/04/21 03:52:21;;;;;;;9.25;5.10;;;;;;;10.48;51.31;100093.53;4025982;29;20069;-54
2022/04/21 03:54:24;;;;;;;6.80;4.63;;;;;;;10.43;51.33;100085.72;4026015;29;20080;-55
2022/04/21 03:56:27;;;;;;;8.48;5.32;;;;;;;10.44;51.37;100095.25;4039833;29;20068;-55
2022/04/21 03:58:30;;;;;;;8.73;4.63;;;;;;;10.43;51.21;100088.31;4025701;29;20046;-56
2022/04/21 04:00:33;;;;;;;6.50;4.93;;;;;;;10.45;51.26;100093.53;4025779;29;20492;-56
2022/04/21 04:02:37;;;;;;;11.90;5.72;;;;;;;10.47;51.05;100086.63;4025961;29;20133;-54
2022/04/21 04:04:43;;;;;;;11.23;5.05;;;;;;;10.47;50.95;100087.47;4026045;29;20054;-54
2022/04/21 04:11:28;;;;;;;9.45;6.22;;;;;;;10.52;51.11;100090.13;4017501;29;20041;-55
2022/04/21 04:13:31;;;;;;;11.35;7.18;;;;;;;10.61;50.56;100086.72;4026110;29;20519;-54
2022/04/21 04:15:34;;;;;;;11.18;7.88;;;;;;;10.45;51.39;100088.31;4025525;29;20050;-55
2022/04/21 04:17:38;;;;;;;11.48;8.38;;;;;;;10.48;51.81;100086.63;4039504;29;20491;-54
2022/04/21 04:19:41;;;;;;;10.55;8.07;;;;;;;10.30;52.02;100081.22;4025435;29;20038;-54
2022/04/21 04:21:44;;;;;;;13.55;9.20;;;;;;;10.32;51.91;100092.50;4035644;29;20053;-55
2022/04/21 04:23:47;;;;;;;14.32;9.30;;;;;;;10.26;51.87;100087.25;4025442;29;20041;-55
2022/04/21 04:25:50;;;;;;;13.73;9.20;;;;;;;10.23;52.09;100088.09;4018967;29;20492;-56
2022/04/21 04:27:53;;;;;;;14.65;9.68;;;;;;;10.20;52.25;100092.41;4035171;29;20053;-54
2022/04/21 04:30:03;;;;;;;12.50;8.70;;;;;;;10.16;52.38;100088.88;4025427;29;20055;-56
2022/04/21 04:32:06;;;;;;;15.45;10.00;;;;;;;10.14;52.42;100082.81;4025299;29;20042;-55
2022/04/21 04:34:11;;;;;;;12.75;9.18;;;;;;;10.14;52.49;100088.88;4025482;29;20343;-55
2022/04/21 04:36:16;;;;;;;13.80;9.30;;;;;;;10.09;52.71;100085.38;4025289;29;20041;-56
2022/04/21 04:38:19;;;;;;;14.80;9.60;;;;;;;10.14;52.79;100083.69;4024664;29;20485;-55
2022/04/21 04:40:22;;;;;;;18.13;10.55;;;;;;;10.11;52.94;100087.97;4025184;29;20133;-54
2022/04/21 04:42:24;;;;;;;16.33;11.10;;;;;;;10.09;53.26;100090.56;4025124;29;20563;-54
2022/04/21 04:44:27;;;;;;;16.05;9.70;;;;;;;10.13;52.85;100091.44;4039301;29;20045;-55
2022/04/21 04:46:38;;;;;;;15.55;10.27;;;;;;;10.19;52.85;100085.44;4024972;29;20046;-54
2022/04/21 04:48:41;;;;;;;15.25;9.55;;;;;;;10.16;53.00;100091.47;4024863;29;20097;-54
2022/04/21 04:50:46;;;;;;;12.27;9.13;;;;;;;10.21;52.78;100095.00;4033839;29;20041;-54
2022/04/21 04:52:49;;;;;;;14.60;9.57;;;;;;;10.12;53.22;100087.13;4034690;29;20045;-55
2022/04/21 04:54:52;;;;;;;16.88;9.75;;;;;;;10.08;53.30;100096.59;4033610;29;20504;-54
2022/04/21 04:56:55;;;;;;;14.20;8.75;;;;;;;10.09;53.29;100095.75;4028779;29;20109;-55
2022/04/21 04:58:58;;;;;;;14.23;9.85;;;;;;;10.11;53.24;100091.44;4029076;29;20072;-54
2022/04/21 05:01:02;;;;;;;15.25;9.85;;;;;;;10.07;53.62;100094.84;4026273;29;20515;-54
2022/04/21 05:03:05;;;;;;;11.63;8.63;;;;;;;10.08;53.73;100087.97;4024910;29;20400;-55
2022/04/21 05:05:09;;;;;;;13.57;9.15;;;;;;;10.13;53.37;100091.44;4028945;29;20053;-55
2022/04/21 05:07:13;;;;;;;13.77;8.82;;;;;;;10.11;53.27;100094.03;4030067;29;20108;-54
2022/04/21 05:09:18;;;;;;;16.42;9.57;;;;;;;10.06;53.69;100094.84;4032506;29;20041;-54
2022/04/21 05:11:21;;;;;;;12.77;8.95;;;;;;;10.13;53.50;100089.75;4031668;29;20382;-55
2022/04/21 05:13:24;;;;;;;17.45;8.70;;;;;;;10.12;53.35;100089.72;4035548;29;20524;-53
2022/04/21 05:15:27;;;;;;;17.17;9.63;;;;;;;10.07;53.57;100096.59;4023494;29;20078;-54
2022/04/21 05:17:31;;;;;;;13.73;8.77;;;;;;;10.11;53.40;100085.38;4024159;29;20507;-54
2022/04/21 05:19:54;;;;;;;17.92;9.63;;;;;;;10.16;53.33;100094.06;4032040;29;20512;-54
2022/04/21 05:22:01;;;;;;;13.80;9.10;;;;;;;10.19;53.53;100091.53;4024385;29;20504;-55
2022/04/21 05:24:08;;;;;;;16.55;9.82;;;;;;;10.19;53.61;100085.44;4029787;29;20514;-56
2022/04/21 05:26:12;;;;;;;15.43;9.30;;;;;;;10.13;53.68;100087.16;4033957;29;20395;-54
2022/04/21 05:28:15;;;;;;;15.10;9.63;;;;;;;10.20;53.66;100089.78;4034271;29;20510;-55
2022/04/21 05:32:42;;;;;;;16.23;9.35;;;;;;;10.22;53.46;100088.06;4031884;29;20409;-55
2022/04/21 05:34:45;;;;;;;15.80;8.80;;;;;;;10.40;53.03;100085.69;4033457;29;20576;-53
2022/04/21 05:36:49;;;;;;;15.82;9.57;;;;;;;10.37;52.88;100083.06;4034256;29;20070;-56
2022/04/21 05:38:52;;;;;;;13.20;9.25;;;;;;;10.36;53.00;100083.06;4024198;29;20409;-54
2022/04/21 05:40:57;;;;;;;11.20;7.72;;;;;;;10.48;52.57;100080.53;4034335;29;20041;-55
2022/04/21 05:43:06;;;;;;;12.60;7.70;;;;;;;10.45;52.51;100078.81;4034447;29;20041;-55
2022/04/21 05:45:10;;;;;;;12.45;8.40;;;;;;;10.54;52.56;100084.94;4007411;29;20572;-56
2022/04/21 05:47:14;;;;;;;14.38;8.00;;;;;;;10.52;52.55;100084.06;4024135;29;20148;-55
2022/04/21 05:49:18;;;;;;;10.10;7.77;;;;;;;10.60;52.97;100082.38;4024154;29;20037;-55
2022/04/21 05:51:21;;;;;;;10.80;7.35;;;;;;;10.71;52.06;100082.47;4024105;29;20037;-55
2022/04/21 05:53:27;;;;;;;11.75;7.20;;;;;;;10.56;52.41;100081.50;4024047;29;20481;-56
2022/04/21 05:55:30;;;;;;;10.88;7.22;;;;;;;10.69;52.29;100082.47;4026341;29;20571;-55
2022/04/21 05:57:38;;;;;;;12.48;7.70;;;;;;;10.68;51.73;100078.13;4033902;29;20527;-56
2022/04/21 05:59:41;;;;;;;8.88;7.03;;;;;;;10.69;52.07;100071.19;4022709;29;20053;-56
2022/04/21 06:01:44;;;;;;;9.43;6.35;;;;;;;10.63;52.78;100075.47;4038317;29;20416;-56
2022/04/21 06:03:47;;;;;;;12.60;7.95;;;;;;;10.79;51.96;100076.47;4033063;29;20529;-55
2022/04/21 06:05:50;;;;;;;10.43;7.32;;;;;;;10.81;51.80;100072.13;4025924;29;20052;-54
2022/04/21 06:07:53;;;;;;;10.32;6.60;;;;;;;10.79;51.81;100072.97;4034353;29;20113;-55
2022/04/21 06:09:56;;;;;;;8.30;6.40;;;;;;;10.78;52.22;100077.31;4038688;29;20132;-54
2022/04/21 06:11:59;;;;;;;9.38;6.75;;;;;;;10.95;51.82;100068.75;4031501;29;20089;-56
2022/04/21 06:14:03;;;;;;;10.20;7.20;;;;;;;10.91;51.67;100072.22;4023769;29;20132;-54
2022/04/21 06:16:06;;;;;;;11.57;7.95;;;;;;;10.97;51.74;100073.13;4035304;29;20052;-56
2022/04/21 06:18:11;;;;;;;9.98;7.00;;;;;;;11.10;51.46;100068.00;4035028;29;20411;-55
2022/04/21 06:20:14;;;;;;;11.55;7.72;;;;;;;11.10;50.97;100070.59;4033633;29;20041;-56
2022/04/21 06:22:17;;;;;;;8.70;6.80;;;;;;;11.08;51.12;100064.50;4032234;29;20461;-53
2022/04/21 06:24:19;;;;;;;11.45;7.30;;;;;;;11.21;50.99;100068.03;4031098;29;20045;-55
2022/04/21 06:26:25;;;;;;;10.52;7.40;;;;;;;11.06;51.70;100064.50;4029250;29;20500;-55
2022/04/21 06:28:29;;;;;;;8.85;6.35;;;;;;;11.08;51.04;100062.78;4023857;29;20373;-54
2022/04/21 06:30:33;;;;;;;9.55;6.55;;;;;;;11.14;51.15;100070.63;4027281;29;20423;-54
2022/04/21 06:32:36;;;;;;;9.07;6.68;;;;;;;11.13;50.60;100074.06;4026401;29;20484;-54
2022/04/21 06:34:39;;;;;;;14.98;7.15;;;;;;;11.22;50.94;100073.25;4022453;29;20046;-54
2022/04/21 06:36:42;;;;;;;8.85;6.55;;;;;;;11.22;51.04;100072.41;4023336;29;20045;-56
2022/04/21 06:38:45;;;;;;;11.18;6.53;;;;;;;11.18;50.97;100077.59;4030238;29;20484;-55
2022/04/21 06:40:48;;;;;;;8.43;6.07;;;;;;;11.12;51.10;100072.31;4032305;29;20519;-53
2022/04/21 06:42:51;;;;;;;10.57;7.13;;;;;;;11.20;51.00;100074.09;4025960;29;20112;-55
2022/04/21 06:49:44;;;;;;;9.50;7.20;;;;;;;11.38;50.90;100075.94;4002770;29;20049;-54
2022/04/21 06:51:47;;;;;;;13.63;7.00;;;;;;;11.34;50.73;100060.28;4030492;29;20057;-55
2022/04/21 06:53:50;;;;;;;9.63;6.82;;;;;;;11.32;50.61;100066.38;4034643;29;20044;-53
2022/04/21 06:55:53;;;;;;;13.45;6.60;;;;;;;11.51;50.29;100059.50;4033319;29;20063;-65
2022/04/21 06:57:56;;;;;;;8.63;5.93;;;;;;;11.54;49.97;100056.91;4037690;29;20045;-65
2022/04/21 06:59:59;;;;;;;11.90;6.72;;;;;;;11.60;49.52;100053.47;4022097;29;20487;-66
2022/04/21 07:02:03;;;;;;;12.93;7.40;;;;;;;11.60;50.69;100056.06;4034786;29;20050;-71
2022/04/21 07:04:08;;;;;;;8.88;6.05;;;;;;;11.73;49.29;100054.38;4032375;29;20049;-70
2022/04/21 07:06:11;;;;;;;9.52;6.32;;;;;;;11.66;50.12;100058.69;4023492;29;20412;-71
2022/04/21 07:08:14;;;;;;;10.15;6.40;;;;;;;11.77;49.50;100058.72;4021864;29;20113;-73
2022/04/21 07:10:18;;;;;;;10.25;5.70;;;;;;;11.77;49.81;100054.41;4031236;29;20034;-66
2022/04/21 07:12:26;;;;;;;9.25;6.25;;;;;;;11.87;50.00;100052.66;4030005;29;20415;-66
2022/04/21 07:14:29;;;;;;;10.35;6.55;;;;;;;11.86;49.74;100050.94;4023337;29;20041;-66
2022/04/21 07:16:32;;;;;;;9.23;6.70;;;;;;;11.79;49.62;100065.66;4028808;29;20755;-66
2022/04/21 07:18:35;;;;;;;9.77;6.95;;;;;;;11.88;49.35;100054.41;4036663;29;20439;-65
2022/04/21 07:20:39;;;;;;;8.57;6.55;;;;;;;11.88;50.09;100052.69;4035865;29;20049;-66
2022/04/21 07:22:42;;;;;;;8.20;6.00;;;;;;;11.81;50.38;100061.34;4037400;29;20045;-66
2022/04/21 07:24:45;;;;;;;8.35;6.05;;;;;;;11.80;49.61;100057.00;4026369;29;20098;-65
2022/04/21 07:26:48;;;;;;;7.93;5.70;;;;;;;11.79;49.93;100051.78;4034060;29;20072;-66
2022/04/21 07:28:51;;;;;;;8.57;6.10;;;;;;;11.87;50.42;100052.66;4035615;29;20145;-66
2022/04/21 07:30:54;;;;;;;12.88;5.90;;;;;;;11.97;49.64;100046.66;4037815;29;20475;-66
2022/04/21 07:32:57;;;;;;;8.75;5.38;;;;;;;12.00;49.94;100057.09;4037775;29;20502;-66
2022/04/21 07:35:01;;;;;;;10.07;5.87;;;;;;;12.22;50.16;100055.38;4031031;29;20439;-66
2022/04/21 07:37:09;;;;;;;9.68;6.45;;;;;;;12.28;50.01;100054.53;4036258;29;20377;-65
2022/04/21 07:39:12;;;;;;;9.32;5.68;;;;;;;12.47;49.08;100051.91;4024746;29;20465;-66
2022/04/21 07:41:15;;;;;;;8.57;6.07;;;;;;;12.38;49.40;100055.38;4040340;29;20079;-65
2022/04/21 07:43:18;;;;;;;10.18;5.55;;;;;;;12.38;49.10;100056.25;4014713;29;20435;-66
2022/04/21 07:45:21;;;;;;;10.38;6.38;;;;;;;12.32;48.85;100050.16;4030594;29;20128;-65
2022/04/21 07:47:24;;;;;;;9.80;6.95;;;;;;;12.33;48.96;100051.91;4030282;29;20046;-66
2022/04/21 07:51:48;;;;;;;10.88;6.38;;;;;;;12.26;49.79;100047.56;4038104;29;20132;-66
2022/04/21 07:53:51;;;;;;;7.13;5.10;;;;;;;12.32;50.22;100044.94;4038047;29;20430;-66
2022/04/21 07:55:54;;;;;;;9.82;5.93;;;;;;;12.35;49.32;100040.63;4027810;29;20049;-66
2022/04/21 07:57:57;;;;;;;14.35;6.85;;;;;;;12.36;49.90;100047.56;4023411;29;20056;-66
2022/04/21 08:00:00;;;;;;;9.80;6.88;;;;;;;12.46;49.25;100043.22;4023689;29;20041;-66
2022/04/21 08:02:13;;;;;;;13.18;6.57;;;;;;;12.45;50.04;100038.00;4022498;29;20389;-66
2022/04/21 08:04:16;;;;;;;13.50;5.97;;;;;;;12.36;49.23;100033.66;4023698;29;20052;-66
2022/04/21 08:06:19;;;;;;;10.55;6.30;;;;;;;12.42;48.96;100036.25;4034757;29;20048;-66
2022/04/21 08:08:22;;;;;;;9.90;6.13;;;;;;;12.38;49.40;100029.31;4035597;29;20101;-66
2022/04/21 08:10:27;;;;;;;10.75;6.25;;;;;;;12.37;49.29;100038.00;4035758;29;20044;-66
2022/04/21 08:12:39;;;;;;;8.10;5.45;;;;;;;12.33;49.55;100033.66;4034539;29;20091;-66
2022/04/21 08:14:42;;;;;;;8.50;5.95;;;;;;;12.46;49.99;100038.00;4025544;29;20100;-65
2022/04/21 08:16:45;;;;;;;9.48;5.63;;;;;;;12.44;49.68;100039.75;4025143;29;20049;-66
2022/04/21 08:18:52;;;;;;;8.98;5.75;;;;;;;12.57;49.49;100036.25;4030328;29;20053;-66
2022/04/21 08:20:58;;;;;;;10.02;6.07;;;;;;;12.66;48.88;100034.50;4032410;29;20076;-66
2022/04/21 08:23:18;;;;;;;7.03;5.47;;;;;;;12.65;48.33;100036.25;4036986;29;20049;-65
2022/04/21 08:32:48;;;;;;;7.43;5.70;;;;;;;12.65;48.69;100038.00;4038706;29;20094;-65
2022/04/21 08:34:51;;;;;;;9.15;6.28;;;;;;;12.70;48.82;100042.34;4025187;29;20042;-66
2022/04/21 08:37:01;;;;;;;9.32;5.95;;;;;;;12.62;48.42;100038.88;4022939;29;20049;-66
2022/04/21 08:39:03;;;;;;;11.80;5.20;;;;;;;12.53;49.00;100039.75;4021895;29;20081;-66
2022/04/21 08:41:18;;;;;;;13.10;6.13;;;;;;;12.61;49.26;100042.34;4022069;29;20062;-65
2022/04/21 08:43:23;;;;;;;10.77;6.03;;;;;;;12.75;48.44;100043.19;4023430;29;20053;-66
2022/04/21 08:45:27;;;;;;;7.97;5.88;;;;;;;12.75;48.23;100035.34;4035369;29;20049;-65
2022/04/21 08:47:31;;;;;;;7.25;5.25;;;;;;;12.79;48.64;100035.34;4034923;29;20101;-66
2022/04/21 08:49:34;;;;;;;8.05;5.53;;;;;;;12.87;48.02;100037.06;4035280;29;20044;-65
2022/04/21 08:51:37;;;;;;;7.65;5.10;;;;;;;12.88;47.96;100031.00;4035303;29;20045;-66
2022/04/21 08:53:41;;;;;;;8.95;5.32;;;;;;;12.93;48.25;100026.63;4036529;29;20129;-66
2022/04/21 08:55:44;;;;;;;8.57;5.65;;;;;;;13.15;47.76;100028.31;4038277;29;20132;-65
2022/04/21 08:57:47;;;;;;;8.43;5.97;;;;;;;13.32;47.32;100026.50;4037908;29;20143;-66
2022/04/21 08:59:53;;;;;;;8.50;5.00;;;;;;;13.27;47.49;100023.94;4038272;29;20069;-66
2022/04/21 09:01:59;;;;;;;6.95;5.03;;;;;;;13.33;47.33;100028.25;4023453;29;20056;-66
2022/04/21 09:04:02;;;;;;;9.00;5.57;;;;;;;13.26;47.10;100016.97;4021515;29;20053;-66
2022/04/21 09:06:05;;;;;;;7.70;5.50;;;;;;;13.42;47.96;100024.78;4022782;29;20098;-66
2022/04/21 09:08:19;;;;;;;8.40;5.20;;;;;;;13.63;46.95;100015.09;4022431;29;20350;-66
2022/04/21 09:10:33;;;;;;;10.07;4.82;;;;;;;14.00;46.66;100018.31;4022406;29;20049;-65
2022/04/21 09:12:41;;;;;;;6.75;4.80;;;;;;;14.37;45.61;100014.56;4029578;29;20055;-66
2022/04/21 09:14:48;;;;;;;6.32;4.78;;;;;;;14.55;45.02;100014.41;4030210;29;20045;-66
2022/04/21 09:16:52;;;;;;;6.80;5.05;;;;;;;14.70;43.94;100010.78;4030555;29;20040;-66
2022/04/21 09:19:02;;;;;;;10.68;5.18;;;;;;;14.69;43.63;100016.03;4029842;29;20211;-66
2022/04/21 09:21:10;;;;;;;7.20;4.78;;;;;;;14.72;43.27;100005.53;4024690;29;20042;-66
2022/04/21 09:23:13;;;;;;;8.60;5.10;;;;;;;14.63;43.62;100011.72;4028471;29;20049;-65
2022/04/21 09:25:16;;;;;;;7.50;4.82;;;;;;;14.63;45.00;100016.97;4030064;29;20136;-66
2022/04/21 09:27:19;;;;;;;6.03;4.35;;;;;;;14.41;44.81;100009.31;4030026;29;20037;-66
2022/04/21 09:29:28;;;;;;;10.63;5.10;;;;;;;14.54;44.30;100011.78;4035168;29;20137;-66
2022/04/21 09:31:31;;;;;;;7.30;4.95;;;;;;;14.45;44.69;100012.75;4027499;29;20058;-66
2022/04/21 09:33:37;;;;;;;6.80;4.63;;;;;;;14.46;44.28;100014.50;4029192;29;20045;-66
2022/04/21 09:35:40;;;;;;;11.07;4.65;;;;;;;14.47;44.41;100003.13;4029496;29;20148;-66
2022/04/21 09:37:51;;;;;;;7.10;4.43;;;;;;;14.65;44.70;99996.91;4023882;29;20052;-66
2022/04/21 09:39:53;;;;;;;8.02;4.03;;;;;;;15.00;43.47;99991.28;4031381;29;20044;-66
2022/04/21 09:41:57;;;;;;;8.40;5.25;;;;;;;15.11;43.69;99987.66;4034460;29;20069;-66
2022/04/21 09:46:35;;;;;;;7.70;5.40;;;;;;;14.99;43.15;99991.31;4024405;29;20174;-58
2022/04/21 09:48:39;;;;;;;11.23;5.53;;;;;;;14.80;43.58;99982.78;4043198;29;20041;-59
2022/04/21 09:50:42;;;;;;;13.52;5.25;;;;;;;14.78;44.33;99995.88;4046698;29;20499;-58
2022/04/21 09:52:49;;;;;;;7.53;4.20;;;;;;;14.78;43.13;99995.03;4025236;29;20049;-58
2022/04/21 09:54:52;;;;;;;8.10;4.00;;;;;;;14.73;43.59;99979.34;4034164;29;20076;-58
2022/04/21 09:56:56;;;;;;;5.97;4.07;;;;;;;14.83;42.99;99981.03;4037715;29;20069;-59
2022/04/21 09:58:59;;;;;;;7.15;3.53;;;;;;;14.89;42.91;99976.59;4036227;29;20041;-58
2022/04/21 10:01:04;;;;;;;9.65;4.43;;;;;;;15.04;43.67;99971.19;4036757;29;20033;-58
2022/04/21 10:03:08;;;;;;;6.80;4.47;;;;;;;15.08;43.44;99970.22;4041576;29;20119;-58
2022/04/21 10:05:12;;;;;;;8.80;4.73;;;;;;;15.09;42.76;99973.75;4031286;29;20068;-58
2022/04/21 10:07:17;;;;;;;7.70;4.68;;;;;;;15.00;42.66;99974.72;4034577;29;20080;-58
2022/04/21 10:09:20;;;;;;;7.40;4.43;;;;;;;15.04;43.88;99970.31;4034739;29;20047;-58
2022/04/21 10:11:24;;;;;;;5.72;4.55;;;;;;;15.05;43.23;99964.19;4038584;29;20045;-58
2022/04/21 10:13:30;;;;;;;8.70;4.82;;;;;;;14.98;43.92;99958.16;4050540;29;20058;-59
2022/04/21 10:15:34;;;;;;;7.75;4.47;;;;;;;15.25;43.14;99951.72;4044896;29;20049;-58
2022/04/21 10:17:37;;;;;;;6.33;4.33;;;;;;;15.47;42.31;99943.56;4036855;29;20056;-58
2022/04/21 10:19:40;;;;;;;6.38;4.22;;;;;;;15.56;42.21;99946.03;4029111;29;20306;-60